spacer
No current alerts for: "Liguria (IT007)".

 

LIQW - Sarzana/Luni, Italy
Distance from station: ESE 12km
Dati ricevuti: 23/02/2024 11:55
DATI Obsoleti
Pioggia, Mist, Nuvoloso
Pioggia, Mist, Nuvoloso
 Vento da E
Vento: E 6 km/h
Temperatura: 10°C
P.to Rugiada: 9°C
Umidità: 94%
Barometro: 998 hPa
Summary: Pioggia, Mist
Nuvole: Molto nuvoloso
Visibility: 4 km
Cloud details: Parz. nuvoloso 305 m
Molto nuvoloso 610 m
2024/02/23 10:55 LIQW 231055Z 09003KT 4000 RA BR SCT010 BKN020 10/09 Q0998
LIRP - Pisa (civ/It-Afb, Italy
Distance from station: SE 65km
Dati ricevuti: 25/02/2024 18:15
Few Clouds
Few Clouds
 Vento da O
Vento: O 7 km/h
Temperatura: 10°C
Temperatura Vento: 9°C
P.to Rugiada: 5°C
Umidità: 71%
Barometro: 1010 hPa
Nuvole: Few Clouds
Visibility: 10 km
Cloud details: Few Clouds 914 m
2024/02/25 17:15 LIRP 251715Z 26004KT 9999 FEW030 10/05 Q1010 NOSIG
 
LIVC - Cimone Mountain, Italy
Distance from station: E 69km
Dati ricevuti: 25/02/2024 17:55

 Vento da OSO
Vento: OSO 20 km/h, Raffica: 41 km/h
Temperatura: -1°C
Temperatura Vento: -7°C
P.to Rugiada: -3°C
Umidità: 86%
Barometro: 1006 hPa
2024/02/25 16:55 LIVC 251655Z AUTO 24011G22KT //// M01/M03 Q1006
LIMJ - Genova/Sestri, Italy
Distance from station: ONO 86km
Dati ricevuti: 25/02/2024 18:20
Pioviggine, Parz. nuvoloso
Pioviggine, Parz. nuvoloso
 Vento da SE
Vento: SE 13 km/h
Temperatura: 12°C
P.to Rugiada: 5°C
Umidità: 63%
Barometro: 1008 hPa
Summary: Pioviggine
Nuvole: Parz. nuvoloso
Visibility: 10 km
Cloud details: Few Clouds 732 m
Parz. nuvoloso 1372 m
2024/02/25 17:20 LIMJ 251720Z 13007KT 9999 -RA FEW024 SCT045 12/05 Q1008
 
LIMV - Giovi Pass, Italy
Distance from station: NO 88km
Dati ricevuti: 24/02/2024 18:55
DATI Obsoleti
Molto nuvoloso
Molto nuvoloso
 Vento da Variabile
Vento: Variabile 0 km/h
Temperatura: 5°C
P.to Rugiada: 4°C
Umidità: 93%
Barometro: 1007 hPa
Nuvole: Molto nuvoloso
Visibility: 10 km
Cloud details: Few Clouds 183 m
Molto nuvoloso 457 m
2024/02/24 17:55 LIMV 241755Z /////KT 9999 FEW006 BKN015 05/04 Q1007
LIMP - Parma, Italy
Distance from station: NNE 88km
Dati ricevuti: 25/02/2024 17:50
Few Clouds
Few Clouds
 Vento da ENE
Vento: ENE 6 km/h
Temperatura: 12°C
P.to Rugiada: 6°C
Umidità: 67%
Barometro: 1008 hPa
Nuvole: Few Clouds
Visibility: 10 km
Cloud details: Few Clouds 610 m
2024/02/25 16:50 LIMP 251650Z 07003KT 9999 FEW020 12/06 Q1008